createdAt,value
2022-10-25T00:00:16.286Z,14.10
2022-10-25T00:05:40.970Z,14.00
2022-10-25T00:39:02.934Z,13.00
2022-10-25T01:18:50.718Z,11.90
2022-10-25T04:20:17.443Z,11.40
2022-10-25T04:25:25.643Z,11.50
2022-10-25T04:42:49.258Z,11.50
2022-10-25T04:47:52.781Z,11.50
2022-10-25T04:52:55.980Z,11.50
2022-10-25T04:57:59.338Z,11.40
2022-10-25T05:03:02.952Z,11.40
2022-10-25T05:08:06.372Z,11.30
2022-10-25T05:13:09.562Z,11.20
2022-10-25T05:18:12.803Z,11.10
2022-10-25T05:23:16.407Z,11.10
2022-10-25T05:28:19.423Z,11.20
2022-10-25T05:33:22.442Z,11.30
2022-10-25T05:38:26.092Z,11.30
2022-10-25T05:43:29.688Z,11.30
2022-10-25T05:48:34.322Z,11.30
2022-10-25T05:53:37.605Z,11.20
2022-10-25T05:58:41.748Z,11.20
2022-10-25T06:03:45.065Z,11.30
2022-10-25T06:08:48.987Z,11.40
2022-10-25T06:13:52.653Z,11.50
2022-10-25T06:18:56.291Z,11.60
2022-10-25T06:24:00.453Z,11.60
2022-10-25T06:29:04.874Z,11.60
2022-10-25T06:34:09.433Z,11.70
2022-10-25T06:39:12.792Z,11.70
2022-10-25T06:44:16.038Z,11.80
2022-10-25T06:49:19.335Z,11.80
2022-10-25T06:54:23.622Z,11.90
2022-10-25T06:59:27.290Z,11.90
2022-10-25T07:04:33.108Z,11.90
2022-10-25T07:09:38.030Z,12.00
2022-10-25T07:14:41.383Z,12.00
2022-10-25T07:19:44.373Z,12.10
2022-10-25T07:24:47.362Z,12.30
2022-10-25T07:29:50.606Z,12.50
2022-10-25T07:34:54.166Z,12.70
2022-10-25T07:39:57.202Z,12.90
2022-10-25T07:45:00.572Z,13.00
2022-10-25T07:50:04.020Z,13.20
2022-10-25T07:55:08.073Z,13.30
2022-10-25T08:00:11.906Z,13.50
2022-10-25T08:05:15.100Z,13.70
2022-10-25T08:10:21.090Z,13.80
2022-10-25T08:15:24.631Z,13.90
2022-10-25T08:20:43.286Z,14.00
2022-10-25T08:25:54.383Z,14.10
2022-10-25T08:31:01.696Z,14.20
2022-10-25T08:36:06.145Z,14.30
2022-10-25T08:41:22.713Z,14.40
2022-10-25T08:46:48.242Z,14.60
2022-10-25T08:51:53.600Z,14.70
2022-10-25T08:57:16.891Z,14.70
2022-10-25T09:02:41.871Z,14.80
2022-10-25T09:07:59.623Z,14.90
2022-10-25T09:13:11.538Z,15.00
2022-10-25T09:18:17.833Z,15.10
2022-10-25T09:23:32.677Z,15.20
2022-10-25T09:29:06.013Z,15.40
2022-10-25T09:34:11.173Z,15.30
2022-10-25T09:39:34.322Z,15.20
2022-10-25T09:44:49.582Z,14.90
2022-10-25T09:49:59.264Z,14.80
2022-10-25T09:55:33.540Z,14.70
2022-10-25T10:00:40.906Z,14.70
2022-10-25T10:05:55.542Z,14.80
2022-10-25T10:11:00.109Z,14.80
2022-10-25T10:16:06.514Z,14.90
2022-10-25T10:21:18.072Z,14.90
2022-10-25T10:26:28.126Z,14.90
2022-10-25T10:31:37.615Z,14.90
2022-10-25T10:36:45.974Z,14.80
2022-10-25T10:42:15.106Z,14.80
2022-10-25T10:47:22.282Z,14.90
2022-10-25T10:52:40.732Z,14.90
2022-10-25T10:57:45.722Z,15.00
2022-10-25T11:02:49.793Z,15.10
2022-10-25T11:07:59.140Z,15.10
2022-10-25T11:13:17.292Z,15.30
2022-10-25T11:18:47.168Z,15.40
2022-10-25T11:24:22.722Z,15.50
2022-10-25T11:29:41.961Z,15.40
2022-10-25T11:35:06.992Z,15.50
2022-10-25T11:40:30.842Z,15.50
2022-10-25T11:46:05.452Z,15.40
2022-10-25T11:51:24.974Z,15.30
2022-10-25T11:56:56.383Z,15.30
2022-10-25T12:02:35.007Z,15.40
2022-10-25T12:07:49.298Z,15.40
2022-10-25T12:13:01.062Z,15.70
2022-10-25T12:18:06.802Z,16.10
2022-10-25T12:23:14.104Z,16.20
2022-10-25T12:28:51.414Z,16.20
2022-10-25T12:34:16.735Z,16.30
2022-10-25T12:39:33.893Z,16.40
2022-10-25T12:45:10.069Z,16.20
2022-10-25T12:50:52.971Z,15.90
2022-10-25T12:56:02.219Z,15.80
2022-10-25T13:01:30.353Z,15.90
2022-10-25T13:07:00.210Z,15.90
2022-10-25T13:12:24.544Z,16.00
2022-10-25T13:17:27.778Z,16.00
2022-10-25T13:22:47.015Z,16.00
2022-10-25T13:28:15.281Z,15.90
2022-10-25T13:33:24.584Z,15.80
2022-10-25T13:38:38.850Z,15.70
2022-10-25T13:44:01.565Z,15.60
2022-10-25T13:49:28.273Z,15.50
2022-10-25T13:54:52.533Z,15.40
2022-10-25T14:00:00.573Z,15.20
2022-10-25T14:05:04.222Z,15.20
2022-10-25T14:10:14.421Z,15.20
2022-10-25T14:15:44.146Z,15.30
2022-10-25T14:20:50.861Z,15.30
2022-10-25T14:25:59.732Z,15.40
2022-10-25T14:31:05.933Z,15.40
2022-10-25T14:36:31.114Z,15.40
2022-10-25T14:41:36.105Z,15.40
2022-10-25T14:46:45.029Z,15.30
2022-10-25T14:51:49.791Z,15.10
2022-10-25T14:56:57.015Z,15.00
2022-10-25T15:02:05.214Z,15.00
2022-10-25T15:07:19.302Z,14.90
2022-10-25T15:12:25.506Z,14.70
2022-10-25T15:17:30.432Z,14.60
2022-10-25T15:22:46.799Z,14.50
2022-10-25T15:27:51.863Z,14.30
2022-10-25T15:32:55.321Z,14.10
2022-10-25T15:37:59.111Z,14.00
2022-10-25T15:43:02.685Z,13.90
2022-10-25T15:48:08.111Z,13.80
2022-10-25T15:53:13.306Z,13.70
2022-10-25T15:58:17.219Z,13.60
2022-10-25T16:03:26.353Z,13.50
2022-10-25T16:08:30.410Z,13.30
2022-10-25T16:13:38.492Z,13.20
2022-10-25T16:18:42.152Z,13.10
2022-10-25T16:23:45.873Z,13.10
2022-10-25T16:28:50.663Z,13.00
2022-10-25T16:33:55.644Z,12.90
2022-10-25T16:38:59.071Z,12.80
2022-10-25T16:44:02.681Z,12.70
2022-10-25T16:49:06.302Z,12.70
2022-10-25T16:54:12.016Z,12.70
2022-10-25T16:59:15.010Z,12.60
2022-10-25T17:04:18.329Z,12.50
2022-10-25T17:09:22.312Z,12.50
2022-10-25T17:14:25.819Z,12.30
2022-10-25T17:19:29.544Z,12.10
2022-10-25T17:24:37.745Z,11.90
2022-10-25T17:29:44.852Z,11.70
2022-10-25T17:34:49.382Z,11.60
2022-10-25T17:39:53.751Z,11.50
2022-10-25T17:44:58.332Z,11.30
2022-10-25T17:50:02.541Z,11.10
2022-10-25T17:55:06.557Z,11.10
2022-10-25T18:00:12.272Z,10.90
2022-10-25T18:05:20.312Z,10.90
2022-10-25T18:10:25.561Z,10.80
2022-10-25T18:15:36.255Z,10.70
2022-10-25T18:20:41.844Z,10.70
2022-10-25T18:31:04.054Z,10.30
2022-10-25T18:36:13.339Z,10.20
2022-10-25T18:41:21.392Z,9.90
2022-10-25T18:46:30.124Z,9.90
2022-10-25T18:51:34.133Z,9.80
2022-10-25T18:56:38.676Z,9.60
2022-10-25T19:01:43.023Z,9.50
2022-10-25T19:06:47.500Z,9.40
2022-10-25T19:11:52.941Z,9.30
2022-10-25T19:16:59.156Z,9.20
2022-10-25T19:22:03.482Z,9.20
2022-10-25T19:27:08.877Z,9.30
2022-10-25T19:32:18.109Z,9.40
2022-10-25T19:37:23.509Z,9.40
2022-10-25T19:42:30.201Z,9.40
2022-10-25T19:47:36.642Z,9.40
2022-10-25T19:52:41.652Z,9.50
2022-10-25T19:57:46.828Z,9.50
2022-10-25T20:02:52.142Z,9.70
2022-10-25T20:16:37.554Z,9.70
2022-10-25T20:28:47.072Z,9.70
2022-10-25T20:34:04.818Z,9.80
2022-10-25T20:39:16.067Z,9.80
2022-10-25T20:44:28.404Z,9.70
2022-10-25T20:49:35.836Z,9.70
2022-10-25T20:54:41.329Z,9.80
2022-10-25T20:59:47.622Z,9.80
2022-10-25T21:05:00.462Z,9.80
2022-10-25T21:10:11.532Z,9.80
2022-10-25T21:15:23.946Z,9.80
2022-10-25T21:20:33.494Z,9.90
2022-10-25T21:25:37.229Z,9.80
2022-10-25T21:30:46.428Z,9.80
2022-10-25T21:35:50.111Z,9.70
2022-10-25T21:40:53.193Z,9.60
2022-10-25T21:45:59.244Z,9.70
2022-10-25T22:11:28.419Z,9.70
2022-10-25T22:16:52.021Z,9.90
2022-10-25T22:50:26.290Z,10.10
2022-10-25T22:56:55.831Z,9.90
2022-10-25T23:02:31.602Z,9.90
2022-10-25T23:46:35.191Z,9.50
2022-10-25T23:51:38.511Z,9.60
2022-10-25T23:56:42.213Z,9.50
